logo tempoitalia

Diretta Meteo Reno/Stead, Stati Uniti (USA)domenica 30 agosto ore 23:35

Mappa
Sereno 16 °C Sereno 24 Ore: T.min 5 T.max 28
Ponente Nord-Ovest Km/h 13 Punto di rugiada: -1 °C Umidità: 31% Visibilità: 10 Km
Il sole sorge alle: 06:26 Il sole tramonta alle: 19:33
30 Agosto 2026 23:35 tempo osservato: Sereno Sereno 16 31 1018 vento: Nord NO 13
30 Agosto 2026 23:15 tempo osservato: Sereno Sereno 17 29 1018 vento: Nord NO 11.1
30 Agosto 2026 22:55 tempo osservato: Sereno Sereno 18 25 1018 vento: Nord O 13
30 Agosto 2026 22:35 tempo osservato: Sereno Sereno 18 25 1018 vento: Nord O 11.1
30 Agosto 2026 22:15 tempo osservato: Sereno Sereno 19 25 1018 vento: Nord O/NO 9.3
30 Agosto 2026 21:55 tempo osservato: Sereno Sereno 18 25 1018 vento: Nord N 5.5
30 Agosto 2026 21:35 tempo osservato: Sereno Sereno 20 24 1018 vento: Nord O/NO 13
30 Agosto 2026 21:15 tempo osservato: Sereno Sereno 21 21 1018 vento: Nord NO 14.8
30 Agosto 2026 20:55 tempo osservato: Sereno Sereno 21 21 1018 vento: Nord N 5.5
30 Agosto 2026 20:35 tempo osservato: Sereno Sereno 21 19 1018 vento: Nord N 0
30 Agosto 2026 20:15 tempo osservato: Sereno Sereno 22 18 1017 vento: Nord NO 14.8
30 Agosto 2026 19:55 tempo osservato: Sereno Sereno 22 19 1017 vento: Nord NO 13
30 Agosto 2026 19:35 tempo osservato: Sereno Sereno 23 18 1017 vento: Nord O/NO 24
30 Agosto 2026 19:15 tempo osservato: Sereno Sereno 24 17 1017 vento: Nord NO 24
30 Agosto 2026 18:55 tempo osservato: Sereno Sereno 25 17 1017 vento: Nord O/NO 29.6
30 Agosto 2026 18:35 tempo osservato: Sereno Sereno 26 16 1017 vento: Nord NO 33.3
30 Agosto 2026 18:15 tempo osservato: Sereno Sereno 27 15 1017 vento: Nord NO 29.6
30 Agosto 2026 17:55 tempo osservato: Sereno Sereno 27 14 1017 vento: Nord O/NO 22.2
30 Agosto 2026 17:35 tempo osservato: Sereno Sereno 27 13 1017 vento: Nord O 7.4
30 Agosto 2026 17:15 tempo osservato: Sereno Sereno 28 12 1017 vento: Nord N 7.4
30 Agosto 2026 16:55 tempo osservato: Sereno Sereno 27 12 1017 vento: Nord O/SO 9.3
30 Agosto 2026 16:35 tempo osservato: Sereno Sereno 27 12 1017 vento: Nord S/SE 11.1
30 Agosto 2026 16:15 tempo osservato: Sereno Sereno 27 12 1017 vento: Nord N 0
30 Agosto 2026 15:55 tempo osservato: Sereno Sereno 27 12 1017 vento: Nord N/NO 11.1
30 Agosto 2026 15:35 tempo osservato: Sereno Sereno 27 12 1018 vento: Nord N 9.3
30 Agosto 2026 15:05 tempo osservato: Sereno Sereno 27 12 1018 vento: Nord E/NE 13
30 Agosto 2026 14:55 tempo osservato: Sereno Sereno 26 13 1018 vento: Nord N 5.5
30 Agosto 2026 14:25 tempo osservato: Sereno Sereno 26 13 1019 vento: Nord N 11.1
30 Agosto 2026 14:15 tempo osservato: Sereno Sereno 25 14 1019 vento: Nord E/SE 14.8
30 Agosto 2026 13:45 tempo osservato: Sereno Sereno 25 14 1019 vento: Nord E/SE 14.8
30 Agosto 2026 13:35 tempo osservato: Sereno Sereno 26 13 1019 vento: Nord E 16.7
30 Agosto 2026 13:15 tempo osservato: Sereno Sereno 25 14 1019 vento: Nord S/SE 14.8
30 Agosto 2026 12:55 tempo osservato: Sereno Sereno 24 14 1019 vento: Nord N 11.1
30 Agosto 2026 12:35 tempo osservato: Sereno Sereno 24 14 1019 vento: Nord S/SE 11.1
30 Agosto 2026 12:15 tempo osservato: Sereno Sereno 24 15 1020 vento: Nord SE 16.7
30 Agosto 2026 11:55 tempo osservato: Sereno Sereno 23 16 1020 vento: Nord E/SE 20.3
30 Agosto 2026 11:35 tempo osservato: Sereno Sereno 22 17 1020 vento: Nord SE 14.8
30 Agosto 2026 11:15 tempo osservato: Sereno Sereno 22 17 1020 vento: Nord E 13
30 Agosto 2026 10:55 tempo osservato: Sereno Sereno 21 18 1020 vento: Nord N 0
30 Agosto 2026 10:35 tempo osservato: Sereno Sereno 20 19 1021 vento: Nord E/SE 9.3
30 Agosto 2026 10:15 tempo osservato: Sereno Sereno 20 19 1021 vento: Nord E/SE 9.3
30 Agosto 2026 09:55 tempo osservato: Sereno Sereno 19 22 1021 vento: Nord E/SE 7.4
30 Agosto 2026 09:35 tempo osservato: Sereno Sereno 18 22 1021 vento: Nord SE 7.4
30 Agosto 2026 09:15 tempo osservato: Sereno Sereno 17 25 1021 vento: Nord N 0
30 Agosto 2026 08:55 tempo osservato: Sereno Sereno 16 26 1021 vento: Nord N 0
30 Agosto 2026 08:35 tempo osservato: Sereno Sereno 14 30 1021 vento: Nord N 0
30 Agosto 2026 08:15 tempo osservato: Sereno Sereno 13 30 1021 vento: Nord N 0
30 Agosto 2026 07:55 tempo osservato: Sereno Sereno 11 37 1021 vento: Nord N 0
30 Agosto 2026 07:35 tempo osservato: Sereno Sereno 10 39 1021 vento: Nord N 0
30 Agosto 2026 07:15 tempo osservato: Sereno Sereno 9 42 1021 vento: Nord N 0
30 Agosto 2026 06:55 tempo osservato: Sereno Sereno 8 42 1020 vento: Nord N 0
30 Agosto 2026 06:35 tempo osservato: Sereno Sereno 5 48 1020 vento: Nord N 9.3
30 Agosto 2026 06:15 tempo osservato: Sereno Sereno 6 45 1020 vento: Nord NO 9.3
30 Agosto 2026 05:55 tempo osservato: Sereno Sereno 6 45 1020 vento: Nord N 7.4
30 Agosto 2026 05:35 tempo osservato: Sereno Sereno 6 48 1020 vento: Nord N 0
30 Agosto 2026 05:15 tempo osservato: Sereno Sereno 9 39 1020 vento: Nord NO 7.4
30 Agosto 2026 04:55 tempo osservato: Sereno Sereno 9 49 1020 vento: Nord N 0
30 Agosto 2026 04:35 tempo osservato: Sereno Sereno 10 36 1020 vento: Nord NE 7.4
30 Agosto 2026 04:15 tempo osservato: Sereno Sereno 10 39 1020 vento: Nord O/NO 11.1
30 Agosto 2026 03:55 tempo osservato: Sereno Sereno 9 39 1020 vento: Nord N/NO 13
30 Agosto 2026 03:35 tempo osservato: Sereno Sereno 9 39 1020 vento: Nord N/NO 9.3
30 Agosto 2026 03:15 tempo osservato: Sereno Sereno 11 37 1020 vento: Nord N/NO 7.4
30 Agosto 2026 02:55 tempo osservato: Sereno Sereno 10 39 1020 vento: Nord N/NO 11.1
30 Agosto 2026 02:35 tempo osservato: Sereno Sereno 10 39 1020 vento: Nord N/NO 13
30 Agosto 2026 02:15 tempo osservato: Sereno Sereno 10 42 1019 vento: Nord N/NO 11.1
30 Agosto 2026 01:55 tempo osservato: Sereno Sereno 9 42 1019 vento: Nord NO 11.1
30 Agosto 2026 01:35 tempo osservato: Sereno Sereno 10 39 1019 vento: Nord NO 13
30 Agosto 2026 01:15 tempo osservato: Sereno Sereno 12 34 1019 vento: Nord N/NO 14.8
30 Agosto 2026 00:55 tempo osservato: Sereno Sereno 13 35 1019 vento: Nord NO 13
30 Agosto 2026 00:35 tempo osservato: Sereno Sereno 11 40 1019 vento: Nord O 14.8
30 Agosto 2026 00:15 tempo osservato: Sereno Sereno 11 37 1019 vento: Nord NO 16.7
29 Agosto 2026 23:55 tempo osservato: Sereno Sereno 13 32 1019 vento: Nord N/NO 13
29 Agosto 2026 23:35 tempo osservato: Sereno Sereno 12 34 1019 vento: Nord N/NO 18.5